Main page
METAR-TAF:

METAR-TAF

Airports :

Funafuti International Airport

Funafuti, Tuvalu

latitude: 08-31S, longitude: 179-13E, elevation: 1 m

Current weather observation

The report was made 3 hours and 10 minutes ago, at 15:00 UTC
Wind 7 kt from the East/Southeast
Temperature 29°C
Humidity 89%
Pressure 1008 hPa
Visibility 10 km or more
Scattered clouds at a height of 2000 ft

METAR: NGFU 211500Z 11007KT 9999 FWE018TCU SCT020 29/27 Q1008

Time: 06:10 (18:10 UTC)

Forecast

The report was made 1 hour and 4 minutes ago, at 17:06 UTC
Forecast valid from 21 at 18 UTC to 22 at 18 UTC
Wind 7 kt from the East/Southeast
Visibility 10 km or more
Few clouds at a height of 1800 ft
Scattered clouds at a height of 2000 ft
Probability 40% :
Temporary
from 21 at 18 UTC to 22 at 18 UTC
Visibility: 5000 m
Few clouds at a height of 1600 ft, Cumulonimbus.
thunderstorm, rain,

TAF: NGFU 211706Z 2118/2218 11007KT 9999 FEW018 SCT020 PROB40 TEMPO 2118/2218 5000 TSRA FEW016CB

Weather observations and forecasts of more than 4000 airports (METAR and TAF reports).

The available stations are represented by yellow and red dots on the map.

Hover mouse over dot to see the name of the station.

Then click to see weather observations and forecasts.

To change the map : click on the green buttons with a black cross to zoom in, on the green button with a dash to zoom out, or on the green arrows for adjacent maps.


METAR-TAF: